Time;durP1;ratioP1;P1;durP2;ratioP2;P2;SDS_P1;SDS_P2;PMS_P1;PMS_P2;Temp;Humidity;BMP_temperature;BMP_pressure;BME280_temperature;BME280_humidity;BME280_pressure;Samples;Min_cycle;Max_cycle;Signal;HPM_P1;HPM_P2
2021/01/05 00:01:21;;;;;;;7.53;6.10;;;;;;;4.19;88.55;95955.38;1737125;81;21455;-54
2021/01/05 00:03:49;;;;;;;7.73;5.70;;;;;;;4.17;88.77;95957.65;1732193;82;22041;-53
2021/01/05 00:06:17;;;;;;;5.67;5.10;;;;;;;4.13;88.94;95949.73;1740490;81;21183;-54
2021/01/05 00:08:55;;;;;;;8.03;6.25;;;;;;;4.16;89.02;95956.83;1795986;79;28430;-54
2021/01/05 00:11:22;;;;;;;6.87;5.90;;;;;;;4.12;89.06;95954.05;1775673;78;21039;-52
2021/01/05 00:13:51;;;;;;;9.18;5.40;;;;;;;4.09;89.17;95950.83;1761125;78;21208;-53
2021/01/05 00:16:19;;;;;;;7.75;5.97;;;;;;;4.06;89.30;95958.22;1763967;78;21219;-53
2021/01/05 00:18:46;;;;;;;8.35;5.67;;;;;;;4.02;89.44;95946.48;1770030;78;21609;-54
2021/01/05 00:21:14;;;;;;;6.37;5.15;;;;;;;3.97;89.60;95960.03;1772526;78;21612;-54
2021/01/05 00:23:41;;;;;;;7.95;5.15;;;;;;;3.94;89.78;95966.61;1774295;78;21105;-54
2021/01/05 00:26:09;;;;;;;6.00;5.40;;;;;;;3.93;89.87;95960.66;1768937;78;21594;-55
2021/01/05 00:28:37;;;;;;;5.80;5.17;;;;;;;3.95;89.91;95958.83;1772996;79;21021;-54
2021/01/05 00:31:05;;;;;;;5.50;4.15;;;;;;;3.96;89.81;95964.78;1775313;79;21078;-54
2021/01/05 00:33:34;;;;;;;6.30;4.90;;;;;;;3.95;89.84;95952.41;1766832;78;21089;-54
2021/01/05 00:36:05;;;;;;;6.33;5.12;;;;;;;3.99;89.74;95953.87;1766843;78;21133;-54
2021/01/05 00:38:34;;;;;;;7.60;5.53;;;;;;;4.01;89.65;95955.08;1779172;78;23724;-55
2021/01/05 00:41:02;;;;;;;6.30;5.08;;;;;;;4.00;89.48;95959.86;1779889;78;21200;-53
2021/01/05 00:43:32;;;;;;;5.30;4.72;;;;;;;3.96;89.47;95945.06;1732644;81;21125;-54
2021/01/05 00:46:00;;;;;;;6.45;4.75;;;;;;;3.95;89.43;95942.61;1725618;81;21233;-54
2021/01/05 00:48:28;;;;;;;4.90;4.40;;;;;;;3.95;89.49;95947.73;1731972;81;21121;-55
2021/01/05 00:50:56;;;;;;;5.93;4.33;;;;;;;3.95;89.41;95954.97;1713998;81;22247;-54
2021/01/05 00:53:24;;;;;;;4.78;4.28;;;;;;;3.95;89.42;95937.01;1729321;81;21081;-57
2021/01/05 00:55:52;;;;;;;5.72;3.87;;;;;;;3.92;89.35;95933.78;1713201;81;21105;-55
2021/01/05 00:58:24;;;;;;;4.80;4.40;;;;;;;3.84;89.51;95947.02;1697469;83;21185;-54
2021/01/05 01:00:53;;;;;;;4.95;4.45;;;;;;;3.77;89.77;95945.71;1709006;82;21499;-54
2021/01/05 01:03:21;;;;;;;4.80;4.30;;;;;;;3.72;90.00;95947.23;1707755;83;21347;-53
2021/01/05 01:05:49;;;;;;;4.50;4.10;;;;;;;3.68;90.06;95932.90;1699863;83;21607;-55
2021/01/05 01:08:19;;;;;;;4.25;3.67;;;;;;;3.69;90.23;95940.52;1720600;82;21166;-53
2021/01/05 01:10:49;;;;;;;4.15;3.72;;;;;;;3.68;90.25;95947.01;1703469;82;21185;-53
2021/01/05 01:13:18;;;;;;;7.17;3.72;;;;;;;3.72;90.26;95948.52;1704869;82;21142;-54
2021/01/05 01:15:45;;;;;;;7.28;3.62;;;;;;;3.75;90.17;95930.39;1741482;81;21595;-53
2021/01/05 01:18:13;;;;;;;4.53;3.98;;;;;;;3.81;90.12;95935.64;1749350;81;21858;-54
2021/01/05 01:20:41;;;;;;;4.37;3.87;;;;;;;3.80;89.85;95928.41;1742505;81;21200;-53
2021/01/05 01:23:09;;;;;;;6.15;3.60;;;;;;;3.78;89.87;95936.65;1738568;82;21107;-52
2021/01/05 01:25:39;;;;;;;4.12;3.72;;;;;;;3.75;89.96;95922.70;1736456;81;21153;-54
2021/01/05 01:28:07;;;;;;;4.25;3.80;;;;;;;3.72;90.11;95919.01;1738775;81;21193;-54
2021/01/05 01:30:36;;;;;;;3.42;3.12;;;;;;;3.74;90.19;95918.93;1740219;81;21224;-54
2021/01/05 01:33:06;;;;;;;5.25;3.67;;;;;;;3.80;90.20;95904.02;1739562;81;21515;-54
2021/01/05 01:35:34;;;;;;;4.25;3.40;;;;;;;3.84;90.02;95911.09;1738877;81;21102;-55
2021/01/05 01:38:02;;;;;;;4.08;3.67;;;;;;;3.83;89.98;95913.28;1741310;80;21083;-55
2021/01/05 01:40:38;;;;;;;3.70;3.37;;;;;;;3.82;90.00;95902.66;1745185;81;21603;-54
2021/01/05 01:43:08;;;;;;;3.80;3.40;;;;;;;3.81;90.06;95902.28;1738817;81;21177;-51
2021/01/05 01:45:36;;;;;;;4.03;3.62;;;;;;;3.77;90.13;95902.91;1743286;81;21078;-52
2021/01/05 01:48:08;;;;;;;3.35;3.05;;;;;;;3.76;90.18;95896.57;1686140;84;21111;-52
2021/01/05 01:50:38;;;;;;;3.72;3.10;;;;;;;3.78;90.25;95892.17;1680638;84;21130;-51
2021/01/05 01:53:25;;;;;;;3.58;3.27;;;;;;;3.84;90.18;95900.83;1680331;84;21225;-50
2021/01/05 01:56:12;;;;;;;3.60;3.30;;;;;;;3.84;89.82;95900.83;1740342;81;21078;-52
2021/01/05 01:59:11;;;;;;;7.22;3.02;;;;;;;3.82;89.78;95894.50;1749114;81;21062;-52
2021/01/05 02:02:04;;;;;;;3.35;2.83;;;;;;;3.81;89.77;95899.71;1743769;81;21082;-52
2021/01/05 02:05:05;;;;;;;3.40;3.10;;;;;;;3.78;89.79;95900.72;1879244;75;27505;-50
2021/01/05 02:07:46;;;;;;;3.47;3.17;;;;;;;3.69;89.90;95898.18;1831694;77;21128;-51
2021/01/05 02:10:42;;;;;;;3.65;3.35;;;;;;;3.63;90.10;95896.41;1842450;77;21208;-51
2021/01/05 02:13:41;;;;;;;3.42;3.12;;;;;;;3.61;90.19;95898.23;1840381;77;21195;-51
2021/01/05 02:16:26;;;;;;;;;;;;;;;3.62;90.20;95893.02;1840034;77;21052;-52
2021/01/05 02:19:04;;;;;;;2.83;2.62;;;;;;;3.58;90.23;95887.67;1796806;79;20263;-52
2021/01/05 02:22:20;;;;;;;2.85;2.45;;;;;;;3.55;90.41;95886.55;1772848;79;21145;-53
2021/01/05 02:25:13;;;;;;;2.65;2.27;;;;;;;3.55;90.50;95870.34;1760703;80;21261;-52
2021/01/05 02:27:45;;;;;;;2.42;2.22;;;;;;;3.54;90.38;95873.37;1799726;79;21191;-51
2021/01/05 02:30:19;;;;;;;2.42;2.22;;;;;;;3.55;90.44;95854.95;1730410;81;21220;-52
2021/01/05 02:32:57;;;;;;;3.05;2.20;;;;;;;3.59;90.34;95861.11;1773291;80;21149;-51
2021/01/05 02:35:41;;;;;;;1.95;1.77;;;;;;;3.62;90.22;95859.67;1745235;81;21148;-52
2021/01/05 02:38:44;;;;;;;1.70;1.60;;;;;;;3.64;90.05;95861.69;1767617;80;21440;-52
2021/01/05 02:41:56;;;;;;;1.32;1.22;;;;;;;3.66;89.83;95856.02;1755550;80;21231;-50
2021/01/05 02:45:18;;;;;;;1.50;1.40;;;;;;;3.68;89.57;95852.08;1760403;81;21554;-51
2021/01/05 02:48:25;;;;;;;3.10;1.77;;;;;;;3.70;89.54;95846.43;1763009;81;21561;-52
2021/01/05 02:51:40;;;;;;;2.40;2.10;;;;;;;3.65;89.50;95840.27;1719309;81;21190;-51
2021/01/05 02:55:01;;;;;;;1.72;1.60;;;;;;;3.61;89.69;95846.92;1836990;77;21144;-52
2021/01/05 02:58:03;;;;;;;2.33;2.13;;;;;;;3.66;89.93;95826.97;1846615;75;26656;-52
2021/01/05 03:01:20;;;;;;;2.67;2.12;;;;;;;3.60;90.00;95834.56;1835141;78;21099;-51
2021/01/05 03:04:07;;;;;;;2.70;2.50;;;;;;;3.58;90.17;95844.52;1825224;78;21259;-52
2021/01/05 03:06:58;;;;;;;2.65;2.40;;;;;;;3.55;90.31;95835.24;1816006;78;21119;-52
2021/01/05 03:10:17;;;;;;;3.17;2.67;;;;;;;3.52;90.52;95826.45;1830880;78;22007;-50
2021/01/05 03:13:31;;;;;;;3.05;2.75;;;;;;;3.54;90.60;95830.22;1818185;78;21607;-51
2021/01/05 03:16:32;;;;;;;3.33;2.95;;;;;;;3.56;90.67;95820.23;1816664;78;21142;-52
2021/01/05 03:19:34;;;;;;;4.70;2.80;;;;;;;3.63;90.62;95816.87;1855565;75;27703;-52
2021/01/05 03:22:21;;;;;;;2.90;2.67;;;;;;;3.71;90.51;95820.31;1811636;78;21491;-51
2021/01/05 03:25:08;;;;;;;3.92;3.05;;;;;;;3.69;90.21;95819.92;1837918;78;21375;-51
2021/01/05 03:27:56;;;;;;;3.67;2.70;;;;;;;3.65;90.40;95820.17;1791463;78;21055;-51
2021/01/05 03:30:46;;;;;;;6.00;2.80;;;;;;;3.64;90.55;95812.95;1838657;78;21045;-51
2021/01/05 03:33:32;;;;;;;4.55;3.00;;;;;;;3.66;90.66;95823.13;1808741;78;20929;-52
2021/01/05 03:36:20;;;;;;;3.52;3.17;;;;;;;3.68;90.59;95814.88;1821192;78;21075;-52
2021/01/05 03:39:06;;;;;;;4.35;3.58;;;;;;;3.72;90.53;95815.09;1823533;78;21571;-51
2021/01/05 03:41:53;;;;;;;3.37;3.05;;;;;;;3.77;90.41;95809.71;1838472;78;20940;-51
2021/01/05 03:44:38;;;;;;;4.33;3.20;;;;;;;3.78;90.38;95817.33;1809840;78;21118;-51
2021/01/05 03:47:24;;;;;;;3.47;3.17;;;;;;;3.79;90.15;95815.11;1822272;78;21086;-52
2021/01/05 03:50:11;;;;;;;3.42;3.12;;;;;;;3.78;90.13;95800.65;1823726;77;21043;-51
2021/01/05 03:52:57;;;;;;;3.65;3.35;;;;;;;3.80;90.13;95792.40;1841580;78;22357;-50
2021/01/05 03:55:44;;;;;;;3.72;3.35;;;;;;;3.82;90.08;95798.73;1821275;78;21063;-50
2021/01/05 03:58:30;;;;;;;3.60;3.22;;;;;;;3.86;90.09;95789.49;1788589;79;21058;-52
2021/01/05 04:01:18;;;;;;;4.17;2.92;;;;;;;3.94;89.62;95785.66;1793328;79;21118;-51
2021/01/05 04:03:45;;;;;;;3.62;3.22;;;;;;;4.02;89.55;95779.16;1804231;79;21162;-51
2021/01/05 04:06:13;;;;;;;10.10;2.83;;;;;;;4.01;89.12;95783.94;1797599;79;21301;-52
2021/01/05 04:08:41;;;;;;;3.90;2.72;;;;;;;3.92;88.89;95778.04;1793535;79;21149;-50
2021/01/05 04:11:08;;;;;;;2.72;2.52;;;;;;;3.81;89.15;95776.53;1776775;79;21121;-51
2021/01/05 04:13:36;;;;;;;4.30;3.00;;;;;;;3.74;89.41;95782.47;1776728;79;21138;-51
2021/01/05 04:16:05;;;;;;;3.47;3.10;;;;;;;3.73;89.56;95773.11;1789181;79;21063;-53
2021/01/05 04:18:32;;;;;;;3.67;2.70;;;;;;;3.72;89.62;95779.17;1791523;79;21191;-51
2021/01/05 04:21:00;;;;;;;3.47;2.77;;;;;;;3.64;89.83;95768.05;1806530;78;21063;-51
2021/01/05 04:23:27;;;;;;;3.72;2.95;;;;;;;3.61;90.06;95777.20;1789002;79;21574;-51
2021/01/05 04:25:55;;;;;;;3.10;2.77;;;;;;;3.59;90.27;95780.31;1806128;79;21039;-50
2021/01/05 04:28:22;;;;;;;4.30;2.70;;;;;;;3.57;90.36;95780.86;1782092;78;21058;-50
2021/01/05 04:30:50;;;;;;;2.70;2.50;;;;;;;3.55;90.51;95779.28;1776148;79;21102;-50
2021/01/05 04:33:17;;;;;;;2.80;2.60;;;;;;;3.55;90.57;95772.86;1790157;79;21122;-52
2021/01/05 04:35:45;;;;;;;2.60;2.40;;;;;;;3.59;90.59;95771.33;1794115;78;21538;-51
2021/01/05 04:38:12;;;;;;;2.70;2.50;;;;;;;3.59;90.32;95776.46;1793920;78;21135;-50
2021/01/05 04:40:43;;;;;;;3.35;2.70;;;;;;;3.57;90.25;95794.12;1807855;78;21068;-51
2021/01/05 04:43:45;;;;;;;2.70;2.50;;;;;;;3.50;90.35;95779.09;1804301;79;21367;-51
2021/01/05 04:46:21;;;;;;;2.60;2.40;;;;;;;3.49;90.47;95779.17;1801030;79;21103;-51
2021/01/05 04:49:15;;;;;;;2.30;2.10;;;;;;;3.50;90.42;95775.24;1795260;79;21182;-53
2021/01/05 04:52:08;;;;;;;3.30;2.70;;;;;;;3.52;90.31;95776.44;1803188;79;21051;-51
2021/01/05 04:54:49;;;;;;;2.67;2.10;;;;;;;3.53;90.15;95763.16;1809682;78;21090;-51
2021/01/05 04:57:23;;;;;;;2.40;2.20;;;;;;;3.53;90.15;95770.84;1750249;81;21394;-51
2021/01/05 05:00:18;;;;;;;2.65;2.45;;;;;;;3.52;90.10;95785.86;1734026;80;21626;-51
2021/01/05 05:03:06;;;;;;;2.20;2.00;;;;;;;3.52;90.08;95779.44;1730919;82;21151;-51
2021/01/05 05:06:14;;;;;;;2.87;2.58;;;;;;;3.46;90.16;95784.00;1739286;82;21171;-51
2021/01/05 05:08:56;;;;;;;2.95;2.52;;;;;;;3.47;90.30;95791.23;1736648;81;21056;-52
2021/01/05 05:11:24;;;;;;;2.17;1.98;;;;;;;3.45;90.23;95777.23;1670669;82;22336;-51
2021/01/05 05:14:10;;;;;;;2.92;2.52;;;;;;;3.41;90.35;95782.15;1743995;81;21092;-51
2021/01/05 05:17:07;;;;;;;2.95;2.67;;;;;;;3.40;90.49;95785.61;1697975;83;21128;-52
2021/01/05 05:20:01;;;;;;;3.37;2.67;;;;;;;3.40;90.46;95775.83;1730350;81;21067;-51
2021/01/05 05:23:06;;;;;;;4.37;3.33;;;;;;;3.40;90.57;95779.67;1748463;82;21140;-52
2021/01/05 05:25:41;;;;;;;2.98;2.45;;;;;;;3.37;90.56;95772.14;1749860;80;21136;-51
2021/01/05 05:28:12;;;;;;;3.05;2.85;;;;;;;3.30;90.73;95748.11;1734532;82;21120;-51
2021/01/05 05:30:42;;;;;;;92.25;53.68;;;;;;;3.27;91.01;95759.00;1712182;82;21141;-51
2021/01/05 05:33:27;;;;;;;3.00;2.60;;;;;;;3.33;91.16;95765.55;1727116;80;21161;-56
2021/01/05 05:36:39;;;;;;;2.65;2.45;;;;;;;3.33;90.86;95757.38;1758198;80;21616;-54
2021/01/05 05:39:46;;;;;;;2.60;2.40;;;;;;;3.32;90.85;95767.26;1747240;80;21220;-54
2021/01/05 05:42:37;;;;;;;2.72;2.52;;;;;;;3.31;90.72;95749.78;1748962;80;21085;-54
2021/01/05 05:45:14;;;;;;;2.70;2.50;;;;;;;3.28;90.63;95770.45;1756770;80;21067;-51
2021/01/05 05:47:50;;;;;;;3.20;2.90;;;;;;;3.34;90.74;95787.69;1753012;80;21060;-53
2021/01/05 05:50:42;;;;;;;2.65;2.45;;;;;;;3.46;90.83;95774.21;1750629;80;21380;-54
2021/01/05 05:53:17;;;;;;;3.37;3.08;;;;;;;3.53;90.25;95769.09;1702509;82;21550;-53
2021/01/05 05:55:56;;;;;;;2.75;2.30;;;;;;;3.54;90.01;95769.95;1737531;80;21212;-53
2021/01/05 05:58:28;;;;;;;2.95;2.75;;;;;;;3.55;89.96;95784.41;1751333;80;21127;-54
2021/01/05 06:00:58;;;;;;;2.98;2.70;;;;;;;3.59;89.90;95796.16;1758441;80;21150;-53
2021/01/05 06:03:27;;;;;;;2.92;2.55;;;;;;;3.62;89.73;95799.38;1756924;80;21092;-54
2021/01/05 06:05:54;;;;;;;2.87;2.58;;;;;;;3.64;89.38;95789.03;1744292;80;21993;-53
2021/01/05 06:08:23;;;;;;;2.83;2.40;;;;;;;3.63;89.18;95795.06;1754166;80;21069;-53
2021/01/05 06:10:51;;;;;;;3.37;2.70;;;;;;;3.59;89.11;95791.85;1757719;80;21080;-54
2021/01/05 06:13:20;;;;;;;3.65;2.95;;;;;;;3.52;89.05;95805.94;1746543;80;21142;-53
2021/01/05 06:15:47;;;;;;;2.80;2.60;;;;;;;3.46;89.24;95804.52;1768887;80;21127;-53
2021/01/05 06:18:17;;;;;;;3.10;2.80;;;;;;;3.45;89.23;95808.02;1751538;80;21403;-54
2021/01/05 06:20:45;;;;;;;3.33;2.90;;;;;;;3.41;89.30;95809.08;1754808;80;21595;-53
2021/01/05 06:23:13;;;;;;;;;;;;;;;3.43;89.35;95803.41;1757786;80;21109;-53
2021/01/05 06:25:41;;;;;;;3.40;2.80;;;;;;;3.45;88.99;95809.30;1755826;80;21937;-53
2021/01/05 06:28:08;;;;;;;2.87;2.45;;;;;;;3.39;88.76;95801.08;1758731;80;21253;-54
2021/01/05 06:30:35;;;;;;;2.83;2.50;;;;;;;3.37;89.00;95808.89;1757221;80;22308;-53
2021/01/05 06:33:05;;;;;;;2.08;1.98;;;;;;;3.38;88.64;95812.27;1756219;80;21099;-53
2021/01/05 06:35:32;;;;;;;2.10;2.00;;;;;;;3.35;88.60;95806.84;1756517;80;21130;-54
2021/01/05 06:38:00;;;;;;;2.72;2.22;;;;;;;3.30;88.65;95809.64;1762161;79;21501;-53
2021/01/05 06:40:28;;;;;;;2.30;2.10;;;;;;;3.28;88.65;95813.22;1754174;80;21130;-53
2021/01/05 06:42:55;;;;;;;2.42;2.22;;;;;;;3.27;88.73;95829.50;1752447;80;22230;-55
2021/01/05 06:45:29;;;;;;;2.47;2.22;;;;;;;3.30;88.67;95820.37;1754306;81;21079;-55
2021/01/05 06:47:58;;;;;;;2.80;2.60;;;;;;;3.30;88.64;95819.09;1760777;80;21119;-53
2021/01/05 06:50:29;;;;;;;2.70;2.50;;;;;;;3.25;88.62;95809.54;1763255;79;21179;-53
2021/01/05 06:52:56;;;;;;;2.50;2.30;;;;;;;3.17;88.79;95821.94;1747169;80;21175;-53
2021/01/05 06:55:25;;;;;;;2.02;1.92;;;;;;;3.11;88.99;95807.27;1759414;80;22327;-54
2021/01/05 06:57:52;;;;;;;2.27;2.08;;;;;;;3.06;89.29;95800.71;1758357;80;22005;-55
2021/01/05 07:00:24;;;;;;;2.50;2.30;;;;;;;3.02;89.47;95804.36;1752015;81;21056;-54
2021/01/05 07:02:52;;;;;;;4.45;3.60;;;;;;;3.03;89.74;95799.63;1766582;79;21083;-53
2021/01/05 07:05:20;;;;;;;10.08;5.45;;;;;;;3.10;89.59;95809.44;1753308;80;21120;-56
2021/01/05 07:07:48;;;;;;;8.85;4.30;;;;;;;3.14;89.21;95804.97;1744195;81;21363;-54
2021/01/05 07:10:17;;;;;;;2.85;2.40;;;;;;;3.09;89.18;95806.95;1769899;80;21598;-55
2021/01/05 07:12:44;;;;;;;;;;;;;;;3.03;89.28;95810.69;1759111;80;21076;-52
2021/01/05 07:15:15;;;;;;;2.90;2.33;;;;;;;3.00;89.51;95799.31;1747939;80;20308;-52
2021/01/05 07:17:42;;;;;;;2.00;1.80;;;;;;;2.96;89.55;95797.84;1743123;81;21049;-51
2021/01/05 07:20:12;;;;;;;2.33;2.00;;;;;;;2.94;89.57;95812.45;1740096;80;21220;-53
2021/01/05 07:22:39;;;;;;;1.75;1.65;;;;;;;2.89;89.58;95813.96;1752210;80;21152;-50
2021/01/05 07:25:10;;;;;;;2.80;2.17;;;;;;;2.88;89.65;95802.54;1784507;80;21126;-50
2021/01/05 07:27:38;;;;;;;1.85;1.75;;;;;;;2.88;89.83;95796.13;1784492;80;21114;-50
2021/01/05 07:30:08;;;;;;;1.67;1.57;;;;;;;2.90;89.44;95788.72;1784489;80;21170;-52
2021/01/05 07:32:35;;;;;;;1.80;1.70;;;;;;;2.85;89.27;95808.64;1765126;80;21234;-52
2021/01/05 07:35:04;;;;;;;1.90;1.77;;;;;;;2.82;89.20;95801.57;1732925;82;21073;-52
2021/01/05 07:37:35;;;;;;;1.60;1.50;;;;;;;2.77;89.30;95801.80;1750471;82;21076;-51
2021/01/05 07:40:06;;;;;;;1.47;1.22;;;;;;;2.72;89.30;95786.67;1750486;80;21069;-52
2021/01/05 07:42:33;;;;;;;2.17;1.95;;;;;;;2.68;89.30;95803.13;1750572;82;21474;-52
2021/01/05 07:45:08;;;;;;;1.80;1.70;;;;;;;2.64;89.55;95796.48;1739225;82;21521;-51
2021/01/05 07:47:37;;;;;;;2.75;1.77;;;;;;;2.66;89.52;95796.41;1733945;81;21187;-51
2021/01/05 07:50:11;;;;;;;1.87;1.65;;;;;;;2.60;89.54;95798.84;1750477;82;21068;-52
2021/01/05 07:52:40;;;;;;;2.83;2.00;;;;;;;2.61;89.60;95813.28;1720569;83;21151;-52
2021/01/05 07:55:19;;;;;;;1.70;1.60;;;;;;;2.62;89.50;95796.20;1720552;83;21614;-51
2021/01/05 07:57:55;;;;;;;1.98;1.87;;;;;;;2.66;89.18;95808.75;1854750;75;28164;-51
2021/01/05 08:00:28;;;;;;;1.70;1.60;;;;;;;2.68;89.09;95809.95;1783546;79;21481;-52
2021/01/05 08:02:57;;;;;;;2.00;1.80;;;;;;;2.66;88.58;95817.72;1807168;78;21246;-53
2021/01/05 08:05:27;;;;;;;1.70;1.60;;;;;;;2.62;88.56;95788.52;1839537;78;20924;-52
2021/01/05 08:07:56;;;;;;;2.05;1.80;;;;;;;2.57;88.35;95809.25;1841503;78;21472;-51
2021/01/05 08:10:30;;;;;;;1.57;1.47;;;;;;;2.52;88.34;95804.35;1827020;77;21063;-52
2021/01/05 08:12:57;;;;;;;1.52;1.42;;;;;;;2.48;88.59;95814.83;1838271;78;21135;-52
2021/01/05 08:15:29;;;;;;;1.72;1.60;;;;;;;2.43;88.71;95815.05;1841794;78;21357;-51
2021/01/05 08:17:57;;;;;;;1.60;1.50;;;;;;;2.38;88.99;95814.03;1832251;78;21036;-51
2021/01/05 08:20:31;;;;;;;1.60;1.50;;;;;;;2.38;88.88;95820.86;1839216;77;21039;-53
2021/01/05 08:22:59;;;;;;;1.87;1.65;;;;;;;2.38;88.82;95815.31;1825787;78;21133;-52
2021/01/05 08:25:27;;;;;;;1.62;1.52;;;;;;;2.41;88.67;95825.02;1824054;78;21124;-51
2021/01/05 08:27:55;;;;;;;1.50;1.40;;;;;;;2.43;88.35;95815.52;1811317;78;21481;-52
2021/01/05 08:30:26;;;;;;;2.62;1.32;;;;;;;2.40;87.68;95816.48;1825666;78;21062;-52
2021/01/05 08:32:55;;;;;;;1.47;1.37;;;;;;;2.32;87.93;95801.53;1839866;78;21062;-51
2021/01/05 08:35:23;;;;;;;;;;;;;;;2.27;87.87;95821.41;1843228;78;21476;-52
2021/01/05 08:37:50;;;;;;;1.55;1.45;;;;;;;2.23;88.08;95812.22;1841481;77;20230;-52
2021/01/05 08:40:28;;;;;;;1.42;1.32;;;;;;;2.18;88.23;95838.03;1841477;78;22771;-51
2021/01/05 08:42:58;;;;;;;1.87;1.75;;;;;;;2.13;88.24;95822.08;1843206;76;21396;-52
2021/01/05 08:45:28;;;;;;;1.85;1.60;;;;;;;2.14;88.09;95824.20;1834858;76;21102;-51
2021/01/05 08:47:55;;;;;;;1.87;1.77;;;;;;;2.16;88.18;95836.01;1839869;78;21038;-51
2021/01/05 08:50:29;;;;;;;1.75;1.65;;;;;;;2.19;87.63;95816.66;1758799;80;21045;-50
2021/01/05 08:53:00;;;;;;;1.87;1.70;;;;;;;2.18;87.46;95820.12;1775337;80;21123;-51
2021/01/05 08:55:27;;;;;;;2.00;1.80;;;;;;;2.10;87.53;95826.53;1749677;79;21146;-52
2021/01/05 08:57:55;;;;;;;2.00;1.90;;;;;;;2.01;87.84;95831.19;1727872;82;21495;-52
2021/01/05 09:00:24;;;;;;;2.20;2.00;;;;;;;1.95;88.30;95821.25;1766469;81;21064;-51
2021/01/05 09:02:52;;;;;;;2.65;2.33;;;;;;;1.95;88.43;95821.71;1735688;82;21072;-52
2021/01/05 09:05:21;;;;;;;2.40;2.12;;;;;;;1.95;88.63;95825.09;1723631;82;26304;-51
2021/01/05 09:07:50;;;;;;;2.10;1.90;;;;;;;1.95;88.74;95825.09;1758841;79;21198;-51
2021/01/05 09:10:24;;;;;;;3.98;2.10;;;;;;;1.95;88.70;95822.53;1738778;81;21153;-52
2021/01/05 09:12:51;;;;;;;2.50;2.10;;;;;;;1.97;88.62;95829.70;1766704;81;21079;-51
2021/01/05 09:15:21;;;;;;;2.45;1.95;;;;;;;2.01;88.69;95829.09;1767742;80;21133;-51
2021/01/05 09:17:50;;;;;;;2.62;2.40;;;;;;;2.05;88.40;95833.14;1767510;81;21291;-51
2021/01/05 09:20:22;;;;;;;3.55;2.80;;;;;;;2.09;88.27;95829.98;1766031;79;21167;-51
2021/01/05 09:22:50;;;;;;;2.77;2.35;;;;;;;2.12;88.13;95828.55;1737099;81;21144;-52
2021/01/05 09:25:17;;;;;;;2.33;2.12;;;;;;;2.11;88.05;95817.96;1736327;81;21144;-51
2021/01/05 09:27:44;;;;;;;2.67;2.45;;;;;;;2.07;87.90;95813.42;1735263;82;21092;-50
2021/01/05 09:30:17;;;;;;;2.17;2.00;;;;;;;2.09;88.06;95804.39;1737264;81;21190;-51
2021/01/05 09:32:45;;;;;;;2.17;1.98;;;;;;;2.16;87.71;95819.38;1737048;82;21096;-52
2021/01/05 09:35:13;;;;;;;3.00;2.37;;;;;;;2.18;87.34;95825.23;1737393;81;21466;-52
2021/01/05 09:37:41;;;;;;;2.15;2.00;;;;;;;2.14;87.02;95835.27;1762847;81;21572;-52
2021/01/05 09:40:10;;;;;;;2.10;1.92;;;;;;;2.05;87.26;95834.42;1767756;80;21151;-51
2021/01/05 09:42:38;;;;;;;3.35;2.77;;;;;;;2.03;87.47;95838.80;1767637;80;21361;-52
2021/01/05 09:45:08;;;;;;;3.87;2.33;;;;;;;2.08;87.52;95829.63;1767473;81;21097;-51
2021/01/05 09:47:35;;;;;;;2.30;2.10;;;;;;;2.09;87.13;95831.26;1767507;81;21069;-51
2021/01/05 09:50:05;;;;;;;2.45;2.25;;;;;;;2.03;87.06;95833.22;1767275;81;22285;-52
2021/01/05 09:52:36;;;;;;;1.82;1.72;;;;;;;2.04;87.26;95830.23;1742574;81;21136;-51
2021/01/05 09:55:06;;;;;;;2.70;2.22;;;;;;;2.09;87.15;95828.70;1767640;79;22096;-52
2021/01/05 09:57:33;;;;;;;2.33;2.12;;;;;;;2.09;86.97;95834.67;1757570;80;21092;-52
2021/01/05 10:00:00;;;;;;;2.42;2.05;;;;;;;2.05;86.48;95833.61;1758862;81;21552;-52
2021/01/05 10:02:30;;;;;;;2.15;1.92;;;;;;;1.95;86.67;95829.39;1750494;80;21139;-51
2021/01/05 10:04:57;;;;;;;2.45;2.27;;;;;;;1.92;86.85;95836.74;1758872;81;21128;-51
2021/01/05 10:07:25;;;;;;;2.67;2.33;;;;;;;1.91;86.89;95836.39;1722924;82;21509;-51
2021/01/05 10:09:52;;;;;;;2.45;2.25;;;;;;;1.90;86.81;95831.34;1728018;81;22063;-51
2021/01/05 10:12:21;;;;;;;;;;;;;;;1.84;86.94;95825.63;1732805;81;21505;-52
2021/01/05 10:14:49;;;;;;;3.58;2.60;;;;;;;1.82;87.02;95827.41;1728670;83;20221;-51
2021/01/05 10:17:16;;;;;;;2.67;2.15;;;;;;;1.78;87.06;95822.07;1729231;81;21184;-51
2021/01/05 10:19:44;;;;;;;2.52;2.33;;;;;;;1.75;87.20;95822.67;1720472;82;21214;-52
2021/01/05 10:22:11;;;;;;;2.42;2.22;;;;;;;1.71;87.54;95812.20;1718482;82;21104;-51
2021/01/05 10:24:39;;;;;;;2.83;2.00;;;;;;;1.73;87.28;95802.75;1728776;83;21581;-51
2021/01/05 10:27:06;;;;;;;2.50;2.30;;;;;;;1.74;87.15;95807.76;1728668;81;21197;-50
2021/01/05 10:29:34;;;;;;;3.73;2.50;;;;;;;1.73;87.02;95799.73;1741156;81;21073;-51
2021/01/05 10:32:04;;;;;;;2.62;2.25;;;;;;;1.68;87.34;95804.23;1745111;82;21469;-51
2021/01/05 10:34:31;;;;;;;2.70;2.30;;;;;;;1.62;87.43;95790.00;1720736;83;21085;-51
2021/01/05 10:37:00;;;;;;;3.40;2.30;;;;;;;1.56;87.77;95780.52;1720876;82;21171;-51
2021/01/05 10:39:29;;;;;;;2.90;2.60;;;;;;;1.51;88.05;95775.61;1728666;83;21160;-52
2021/01/05 10:41:59;;;;;;;2.77;2.50;;;;;;;1.49;88.23;95790.21;1733824;82;21143;-53
2021/01/05 10:44:26;;;;;;;2.22;2.02;;;;;;;1.49;88.23;95790.21;1750614;80;21203;-52
2021/01/05 10:47:01;;;;;;;4.15;2.80;;;;;;;1.49;87.98;95797.88;1750477;82;21088;-51
2021/01/05 10:49:28;;;;;;;2.25;2.05;;;;;;;1.44;88.00;95799.83;1750538;82;21135;-51
2021/01/05 10:51:58;;;;;;;3.13;2.57;;;;;;;1.40;88.15;95793.22;1729116;81;21174;-51
2021/01/05 10:54:27;;;;;;;3.45;3.15;;;;;;;1.35;88.17;95784.48;1748900;82;21170;-49
2021/01/05 10:57:03;;;;;;;;;;;;;;;1.31;88.53;95803.86;1752908;81;21366;-51
2021/01/05 10:59:31;;;;;;;2.95;2.65;;;;;;;1.27;88.68;95795.52;1745139;81;20222;-51
2021/01/05 11:02:02;;;;;;;3.20;2.60;;;;;;;1.28;88.84;95767.33;1720873;83;21155;-50
2021/01/05 11:04:30;;;;;;;3.52;2.90;;;;;;;1.34;88.86;95784.55;1720626;82;21131;-51
2021/01/05 11:07:00;;;;;;;5.80;3.40;;;;;;;1.39;88.52;95779.59;1742325;82;21099;-52
2021/01/05 11:09:29;;;;;;;5.72;3.17;;;;;;;1.42;88.38;95785.02;1750625;82;21175;-52
2021/01/05 11:12:10;;;;;;;3.25;2.92;;;;;;;1.43;88.00;95802.84;1715763;82;21100;-51
2021/01/05 11:14:38;;;;;;;3.42;3.10;;;;;;;1.43;88.00;95802.84;1720620;82;21144;-52
2021/01/05 11:17:07;;;;;;;;;;;;;;;1.43;88.16;95795.17;1723243;82;21638;-50
2021/01/05 11:19:36;;;;;;;4.47;3.85;;;;;;;1.52;88.33;95797.73;1741737;82;21728;-52
2021/01/05 11:22:06;;;;;;;3.95;3.22;;;;;;;1.58;87.88;95795.33;1729138;81;21202;-51
2021/01/05 11:24:35;;;;;;;3.22;2.90;;;;;;;1.60;87.35;95798.20;1720838;82;21071;-51
2021/01/05 11:27:04;;;;;;;;;;;;;;;1.55;87.09;95784.81;1731242;83;21081;-51
2021/01/05 11:29:31;;;;;;;3.22;2.92;;;;;;;1.51;87.57;95788.86;1728823;83;20245;-51
2021/01/05 11:32:08;;;;;;;4.08;3.30;;;;;;;1.46;87.43;95800.58;1728641;82;21597;-52
2021/01/05 11:34:36;;;;;;;4.25;3.22;;;;;;;1.42;87.65;95795.25;1724988;82;22884;-51
2021/01/05 11:37:12;;;;;;;3.60;3.20;;;;;;;1.43;87.79;95801.99;1729093;82;21521;-51
2021/01/05 11:39:46;;;;;;;3.77;3.27;;;;;;;1.45;87.82;95799.76;1758854;80;21100;-51
2021/01/05 11:42:15;;;;;;;4.70;3.33;;;;;;;1.54;87.49;95797.20;1750525;80;21065;-52
2021/01/05 11:44:44;;;;;;;3.70;3.35;;;;;;;1.53;87.14;95799.41;1750483;80;21076;-50
2021/01/05 11:47:14;;;;;;;4.17;3.60;;;;;;;1.49;87.25;95795.78;1750477;80;21212;-51
2021/01/05 11:49:45;;;;;;;4.22;3.33;;;;;;;1.51;87.52;95800.37;1733455;82;20973;-51
2021/01/05 11:52:12;;;;;;;;;;;;;;;1.51;87.34;95793.97;1724129;82;21068;-52
2021/01/05 11:54:39;;;;;;;3.80;3.40;;;;;;;1.53;87.55;95793.44;1735343;81;20518;-51
2021/01/05 11:57:07;;;;;;;5.55;3.67;;;;;;;1.59;87.32;95787.59;1751795;81;21140;-51
2021/01/05 11:59:34;;;;;;;3.62;3.08;;;;;;;1.61;87.10;95781.97;1752424;81;21080;-51
2021/01/05 12:02:02;;;;;;;5.92;3.25;;;;;;;1.70;87.04;95779.88;1757271;80;21527;-51
2021/01/05 12:04:30;;;;;;;3.85;2.98;;;;;;;1.70;86.43;95783.70;1736974;82;21125;-51
2021/01/05 12:06:57;;;;;;;4.05;3.55;;;;;;;1.60;86.34;95780.30;1744659;81;21131;-51
2021/01/05 12:09:27;;;;;;;5.10;3.72;;;;;;;1.59;86.58;95786.31;1744880;82;21101;-51
2021/01/05 12:11:58;;;;;;;4.20;3.27;;;;;;;1.58;86.78;95779.55;1733572;81;21209;-51
2021/01/05 12:14:26;;;;;;;3.83;3.42;;;;;;;1.65;86.71;95786.02;1746971;82;21096;-51
2021/01/05 12:16:59;;;;;;;3.95;3.45;;;;;;;1.75;86.45;95790.24;1767064;81;21099;-52
2021/01/05 12:19:29;;;;;;;4.87;4.05;;;;;;;1.86;86.49;95796.56;1767410;80;21184;-51